createdAt,value
2024-04-07T00:00:17.179Z,157.29
2024-04-07T00:01:17.223Z,159.16
2024-04-07T00:02:17.319Z,158.48
2024-04-07T00:03:17.327Z,159.67
2024-04-07T00:04:17.396Z,157.92
2024-04-07T00:05:17.428Z,159.30
2024-04-07T00:06:17.535Z,158.63
2024-04-07T00:07:17.540Z,157.70
2024-04-07T00:08:17.594Z,157.75
2024-04-07T00:09:17.630Z,157.51
2024-04-07T00:10:17.685Z,158.75
2024-04-07T00:11:17.717Z,157.95
2024-04-07T00:12:17.762Z,157.41
2024-04-07T00:13:17.780Z,156.21
2024-04-07T00:14:17.840Z,156.82
2024-04-07T00:15:17.866Z,156.92
2024-04-07T00:16:17.922Z,155.59
2024-04-07T00:17:17.980Z,157.18
2024-04-07T00:18:18.003Z,156.95
2024-04-07T00:19:18.067Z,157.82
2024-04-07T00:20:18.130Z,157.82
2024-04-07T00:21:18.178Z,158.52
2024-04-07T00:22:18.252Z,157.63
2024-04-07T00:23:18.289Z,156.70
2024-04-07T00:24:18.342Z,157.58
2024-04-07T00:25:18.379Z,157.60
2024-04-07T00:26:18.399Z,158.03
2024-04-07T00:27:18.468Z,157.10
2024-04-07T00:28:18.503Z,158.40
2024-04-07T00:29:18.565Z,157.69
2024-04-07T00:30:18.624Z,157.86
2024-04-07T00:31:18.618Z,157.73
2024-04-07T00:32:18.639Z,156.91
2024-04-07T00:33:18.634Z,157.86
2024-04-07T00:34:18.633Z,156.04
2024-04-07T00:35:18.627Z,158.03
2024-04-07T00:36:18.642Z,158.45
2024-04-07T00:37:18.640Z,157.30
2024-04-07T00:38:18.640Z,159.01
2024-04-07T00:39:18.640Z,157.10
2024-04-07T00:40:18.646Z,157.57
2024-04-07T00:41:18.692Z,156.36
2024-04-07T00:42:18.743Z,155.73
2024-04-07T00:43:18.806Z,158.19
2024-04-07T00:44:18.845Z,156.60
2024-04-07T00:45:18.896Z,156.64
2024-04-07T00:46:18.941Z,155.85
2024-04-07T00:47:18.992Z,156.92
2024-04-07T00:48:19.031Z,157.09
2024-04-07T00:49:19.079Z,155.59
2024-04-07T00:50:19.147Z,156.69
2024-04-07T00:51:19.194Z,156.07
2024-04-07T00:52:19.264Z,155.88
2024-04-07T00:53:19.292Z,154.43
2024-04-07T00:54:19.331Z,154.43
2024-04-07T00:55:19.393Z,155.38
2024-04-07T00:56:19.454Z,154.44
2024-04-07T00:57:19.509Z,154.88
2024-04-07T00:58:19.572Z,153.46
2024-04-07T00:59:19.621Z,154.41
2024-04-07T01:00:19.667Z,152.25
2024-04-07T01:01:19.729Z,153.17
2024-04-07T01:02:19.773Z,152.40
2024-04-07T01:03:19.823Z,152.66
2024-04-07T01:04:19.891Z,152.45
2024-04-07T01:05:19.940Z,152.44
2024-04-07T01:06:20.000Z,151.80
2024-04-07T01:07:20.053Z,151.59
2024-04-07T01:08:20.116Z,152.73
2024-04-07T01:09:20.161Z,151.59
2024-04-07T01:10:20.211Z,150.05
2024-04-07T01:11:20.267Z,149.44
2024-04-07T01:12:20.331Z,150.41
2024-04-07T01:13:20.379Z,150.01
2024-04-07T01:14:20.444Z,151.20
2024-04-07T01:15:20.506Z,149.03
2024-04-07T01:16:20.545Z,147.69
2024-04-07T01:17:20.607Z,148.67
2024-04-07T01:18:20.670Z,148.80
2024-04-07T01:19:20.708Z,147.18
2024-04-07T01:20:20.783Z,148.73
2024-04-07T01:21:20.832Z,146.98
2024-04-07T01:22:20.996Z,148.31
2024-04-07T01:23:20.998Z,148.61
2024-04-07T01:24:21.009Z,148.17
2024-04-07T01:25:21.071Z,149.90
2024-04-07T01:26:21.111Z,148.65
2024-04-07T01:27:21.181Z,147.11
2024-04-07T01:28:21.251Z,147.84
2024-04-07T01:29:21.244Z,147.88
2024-04-07T01:30:21.257Z,147.93
2024-04-07T01:31:21.243Z,147.91
2024-04-07T01:32:21.262Z,147.16
2024-04-07T01:33:21.261Z,147.22
2024-04-07T01:34:21.252Z,148.77
2024-04-07T01:35:21.259Z,148.74
2024-04-07T01:36:21.261Z,146.79
2024-04-07T01:37:21.271Z,147.48
2024-04-07T01:38:21.307Z,149.20
2024-04-07T01:39:21.358Z,148.35
2024-04-07T01:40:21.425Z,148.77
2024-04-07T01:41:21.493Z,148.63
2024-04-07T01:42:21.557Z,148.37
2024-04-07T01:43:21.611Z,147.48
2024-04-07T01:44:21.685Z,146.74
2024-04-07T01:45:21.714Z,146.97
2024-04-07T01:46:21.778Z,148.04
2024-04-07T01:47:21.826Z,148.24
2024-04-07T01:48:21.854Z,148.96
2024-04-07T01:49:21.902Z,149.08
2024-04-07T01:50:21.955Z,148.34
2024-04-07T01:51:21.985Z,148.30
2024-04-07T01:52:22.065Z,148.35
2024-04-07T01:53:22.100Z,148.60
2024-04-07T01:54:22.188Z,149.37
2024-04-07T01:55:22.246Z,149.65
2024-04-07T01:56:22.299Z,149.16
2024-04-07T01:57:22.358Z,149.93
2024-04-07T01:58:22.414Z,149.89
2024-04-07T01:59:22.475Z,148.70
2024-04-07T02:00:22.534Z,150.36
2024-04-07T02:01:22.596Z,149.53
2024-04-07T02:02:22.642Z,150.71
2024-04-07T02:03:22.716Z,150.62
2024-04-07T02:04:22.769Z,150.57
2024-04-07T02:05:22.804Z,151.19
2024-04-07T02:06:22.835Z,151.29
2024-04-07T02:07:22.926Z,150.10
2024-04-07T02:08:22.929Z,150.23
2024-04-07T02:09:22.985Z,152.25
2024-04-07T02:10:23.015Z,150.10
2024-04-07T02:11:23.069Z,151.49
2024-04-07T02:12:23.117Z,150.37
2024-04-07T02:13:23.177Z,149.32
2024-04-07T02:14:23.235Z,150.15
2024-04-07T02:15:23.298Z,148.74
2024-04-07T02:16:23.374Z,148.94
2024-04-07T02:17:23.426Z,149.00
2024-04-07T02:18:23.454Z,149.26
2024-04-07T02:19:23.476Z,149.27
2024-04-07T02:20:23.478Z,149.46
2024-04-07T02:21:23.468Z,149.93
2024-04-07T02:22:23.461Z,148.67
2024-04-07T02:23:23.471Z,150.17
2024-04-07T02:24:23.474Z,150.53
2024-04-07T02:25:23.480Z,148.66
2024-04-07T02:26:23.477Z,149.21
2024-04-07T02:27:23.487Z,150.76
2024-04-07T02:28:23.479Z,150.52
2024-04-07T02:29:23.507Z,150.36
2024-04-07T02:30:23.547Z,150.04
2024-04-07T02:31:23.620Z,151.66
2024-04-07T02:32:23.660Z,151.33
2024-04-07T02:33:23.720Z,151.46
2024-04-07T02:34:23.781Z,152.21
2024-04-07T02:35:23.833Z,151.36
2024-04-07T02:36:23.874Z,152.53
2024-04-07T02:37:23.924Z,152.72
2024-04-07T02:38:23.989Z,152.11
2024-04-07T02:39:24.063Z,151.85
2024-04-07T02:40:24.117Z,152.98
2024-04-07T02:41:24.183Z,153.73
2024-04-07T02:42:24.238Z,152.91
2024-04-07T02:43:24.276Z,153.16
2024-04-07T02:44:24.307Z,153.30
2024-04-07T02:45:24.365Z,152.23
2024-04-07T02:46:24.417Z,149.81
2024-04-07T02:47:24.427Z,149.93
2024-04-07T02:48:24.423Z,150.19
2024-04-07T02:49:24.432Z,150.81
2024-04-07T02:50:24.418Z,151.24
2024-04-07T02:51:24.439Z,151.99
2024-04-07T02:52:24.427Z,151.78
2024-04-07T02:53:24.423Z,151.41
2024-04-07T02:54:24.427Z,149.92
2024-04-07T02:55:24.440Z,150.46
2024-04-07T02:56:24.431Z,150.50
2024-04-07T02:57:24.451Z,150.66
2024-04-07T02:58:24.451Z,150.62
2024-04-07T02:59:27.974Z,149.99
2024-04-07T03:00:24.442Z,150.49
2024-04-07T03:01:24.446Z,149.12
2024-04-07T03:02:24.455Z,150.10
2024-04-07T03:03:24.445Z,148.99
2024-04-07T03:04:24.454Z,149.34
2024-04-07T03:05:24.446Z,148.50
2024-04-07T03:06:24.446Z,147.84
2024-04-07T03:07:24.457Z,147.89
2024-04-07T03:08:24.447Z,149.17
2024-04-07T03:09:24.456Z,148.06
2024-04-07T03:10:24.459Z,147.50
2024-04-07T03:11:24.468Z,148.54
2024-04-07T03:12:24.466Z,145.11
2024-04-07T03:13:24.470Z,147.33
2024-04-07T03:14:24.456Z,146.01
2024-04-07T03:15:24.464Z,147.09
2024-04-07T03:16:24.466Z,145.95
2024-04-07T03:17:24.508Z,146.58
2024-04-07T03:18:24.565Z,145.12
2024-04-07T03:19:24.576Z,146.25
2024-04-07T03:20:24.620Z,146.75
2024-04-07T03:21:24.648Z,146.82
2024-04-07T03:22:24.647Z,145.94
2024-04-07T03:23:24.665Z,146.27
2024-04-07T03:24:24.651Z,146.95
2024-04-07T03:25:24.669Z,145.33
2024-04-07T03:26:24.662Z,144.51
2024-04-07T03:27:24.665Z,142.97
2024-04-07T03:28:24.657Z,139.94
2024-04-07T03:29:24.655Z,136.34
2024-04-07T03:30:24.662Z,130.91
2024-04-07T03:31:24.665Z,126.08
2024-04-07T03:32:24.706Z,119.13
2024-04-07T03:33:24.668Z,113.89
2024-04-07T03:34:24.677Z,106.75
2024-04-07T03:35:24.684Z,99.06
2024-04-07T03:36:24.666Z,93.39
2024-04-07T03:37:24.684Z,87.39
2024-04-07T03:38:24.678Z,80.28
2024-04-07T03:39:24.699Z,74.31
2024-04-07T03:40:24.718Z,67.52
2024-04-07T03:41:24.762Z,61.87
2024-04-07T03:42:24.796Z,55.88
2024-04-07T03:43:24.839Z,53.23
2024-04-07T03:44:24.883Z,50.28
2024-04-07T03:45:24.934Z,49.18
2024-04-07T03:46:24.979Z,50.00
2024-04-07T03:47:25.033Z,51.16
2024-04-07T03:48:25.054Z,51.15
2024-04-07T03:49:25.093Z,50.02
2024-04-07T03:50:25.137Z,50.00
2024-04-07T03:51:25.202Z,51.16
2024-04-07T03:52:25.272Z,51.22
2024-04-07T03:53:25.291Z,50.00
2024-04-07T03:54:25.367Z,50.81
2024-04-07T03:55:25.408Z,50.34
2024-04-07T03:56:25.454Z,50.75
2024-04-07T03:57:25.542Z,51.32
2024-04-07T03:58:25.580Z,49.17
2024-04-07T03:59:25.635Z,50.38
2024-04-07T04:00:25.684Z,51.96
2024-04-07T04:01:25.751Z,50.91
2024-04-07T04:02:25.811Z,50.00
2024-04-07T04:03:27.216Z,51.59
2024-04-07T04:04:25.915Z,51.18
2024-04-07T04:05:25.981Z,50.00
2024-04-07T04:06:26.053Z,50.90
2024-04-07T04:07:26.125Z,50.97
2024-04-07T04:08:26.186Z,50.22
2024-04-07T04:09:26.239Z,50.77
2024-04-07T04:10:26.311Z,51.41
2024-04-07T04:11:26.383Z,50.00
2024-04-07T04:12:26.437Z,50.00
2024-04-07T04:13:26.519Z,51.64
2024-04-07T04:14:26.573Z,50.33
2024-04-07T04:15:26.643Z,51.10
2024-04-07T04:16:26.703Z,51.65
2024-04-07T04:17:26.779Z,50.40
2024-04-07T04:18:26.842Z,50.31
2024-04-07T04:19:34.048Z,50.00
2024-04-07T04:20:34.058Z,50.00
2024-04-07T04:21:34.052Z,50.00
2024-04-07T04:22:34.054Z,50.00
2024-04-07T04:23:34.047Z,50.00
2024-04-07T04:24:34.054Z,51.90
2024-04-07T04:25:34.073Z,51.86
2024-04-07T04:26:34.074Z,51.76
2024-04-07T04:27:34.069Z,51.71
2024-04-07T04:28:34.054Z,53.58
2024-04-07T04:29:34.068Z,50.57
2024-04-07T04:30:34.059Z,50.94
2024-04-07T04:31:41.269Z,50.00
2024-04-07T04:32:41.271Z,50.00
2024-04-07T04:33:41.253Z,50.00
2024-04-07T04:34:41.283Z,50.00
2024-04-07T04:35:41.276Z,50.00
2024-04-07T04:36:41.270Z,51.63
2024-04-07T04:37:41.315Z,50.73
2024-04-07T04:38:41.273Z,50.27
2024-04-07T04:39:41.265Z,50.10
2024-04-07T04:40:41.296Z,52.47
2024-04-07T04:41:41.277Z,51.29
2024-04-07T04:42:41.288Z,51.93
2024-04-07T04:43:41.295Z,51.55
2024-04-07T04:44:41.303Z,51.58
2024-04-07T04:45:41.297Z,51.88
2024-04-07T04:46:41.292Z,51.56
2024-04-07T04:47:41.299Z,47.17
2024-04-07T04:48:41.288Z,48.04
2024-04-07T04:49:41.289Z,51.73
2024-04-07T04:50:41.295Z,50.63
2024-04-07T04:51:41.304Z,53.14
2024-04-07T04:52:41.309Z,53.51
2024-04-07T04:53:41.304Z,51.95
2024-04-07T04:54:41.295Z,52.25
2024-04-07T04:55:41.297Z,50.31
2024-04-07T04:56:41.306Z,50.76
2024-04-07T04:57:41.330Z,52.46
2024-04-07T04:58:41.401Z,52.94
2024-04-07T04:59:41.439Z,50.11
2024-04-07T05:00:41.478Z,53.55
2024-04-07T05:01:41.457Z,52.15
2024-04-07T05:02:41.482Z,50.92
2024-04-07T05:03:41.487Z,52.03
2024-04-07T05:04:41.499Z,54.04
2024-04-07T05:05:41.503Z,53.80
2024-04-07T05:06:41.505Z,53.54
2024-04-07T05:07:41.535Z,52.76
2024-04-07T05:08:41.536Z,53.14
2024-04-07T05:09:41.536Z,54.93
2024-04-07T05:10:41.621Z,54.79
2024-04-07T05:11:41.593Z,54.36
2024-04-07T05:12:41.615Z,54.78
2024-04-07T05:13:41.618Z,54.88
2024-04-07T05:14:41.616Z,55.07
2024-04-07T05:15:41.634Z,55.27
2024-04-07T05:16:41.635Z,54.68
2024-04-07T05:17:43.811Z,54.88
2024-04-07T05:18:41.624Z,53.12
2024-04-07T05:19:41.628Z,55.14
2024-04-07T05:20:41.631Z,54.82
2024-04-07T05:21:41.632Z,54.77
2024-04-07T05:22:41.632Z,55.67
2024-04-07T05:23:41.634Z,54.23
2024-04-07T05:24:42.410Z,52.56
2024-04-07T05:25:41.625Z,53.91
2024-04-07T05:26:41.651Z,51.57
2024-04-07T05:27:41.653Z,54.17
2024-04-07T05:28:41.652Z,51.50
2024-04-07T05:29:41.640Z,53.09
2024-04-07T05:30:41.645Z,49.91
2024-04-07T05:31:41.637Z,51.03
2024-04-07T05:32:41.657Z,51.08
2024-04-07T05:33:41.644Z,51.03
2024-04-07T05:34:41.673Z,51.26
2024-04-07T05:35:41.656Z,48.28
2024-04-07T05:36:41.659Z,49.49
2024-04-07T05:37:41.716Z,52.29
2024-04-07T05:38:41.662Z,50.26
2024-04-07T05:39:41.669Z,51.94
2024-04-07T05:40:41.658Z,52.02
2024-04-07T05:41:41.666Z,52.54
2024-04-07T05:42:41.676Z,50.00
2024-04-07T05:43:41.666Z,52.83
2024-04-07T05:44:41.677Z,51.39
2024-04-07T05:45:41.676Z,50.10
2024-04-07T05:46:41.670Z,52.39
2024-04-07T05:47:41.672Z,53.54
2024-04-07T05:48:41.693Z,55.02
2024-04-07T05:49:41.693Z,53.35
2024-04-07T05:50:41.705Z,54.81
2024-04-07T05:51:41.680Z,54.11
2024-04-07T05:52:41.709Z,54.18
2024-04-07T05:53:41.700Z,56.32
2024-04-07T05:54:41.700Z,53.25
2024-04-07T05:55:41.696Z,55.42
2024-04-07T05:56:41.715Z,55.12
2024-04-07T05:57:41.764Z,50.78
2024-04-07T05:58:41.945Z,53.57
2024-04-07T05:59:41.706Z,53.33
2024-04-07T06:00:41.723Z,54.00
2024-04-07T06:01:41.692Z,51.64
2024-04-07T06:02:41.708Z,52.67
2024-04-07T06:03:41.707Z,52.28
2024-04-07T06:04:41.711Z,52.89
2024-04-07T06:05:41.712Z,52.36
2024-04-07T06:06:41.714Z,50.00
2024-04-07T06:07:45.122Z,50.78
2024-04-07T06:08:41.727Z,51.26
2024-04-07T06:09:41.722Z,51.71
2024-04-07T06:10:41.755Z,50.91
2024-04-07T06:11:41.926Z,51.98
2024-04-07T06:12:41.757Z,54.00
2024-04-07T06:13:41.730Z,50.66
2024-04-07T06:14:41.805Z,50.00
2024-04-07T06:15:41.733Z,51.89
2024-04-07T06:16:41.738Z,52.33
2024-04-07T06:17:41.744Z,51.28
2024-04-07T06:18:41.748Z,50.65
2024-04-07T06:19:41.756Z,52.71
2024-04-07T06:20:41.756Z,50.66
2024-04-07T06:21:41.755Z,51.28
2024-04-07T06:22:41.763Z,51.68
2024-04-07T06:23:41.756Z,51.33
2024-04-07T06:24:41.856Z,51.59
2024-04-07T06:25:41.754Z,50.60
2024-04-07T06:26:41.758Z,50.00
2024-04-07T06:27:41.768Z,51.01
2024-04-07T06:28:41.774Z,52.52
2024-04-07T06:29:41.764Z,52.17
2024-04-07T06:30:41.759Z,50.00
2024-04-07T06:31:41.763Z,51.07
2024-04-07T06:32:41.777Z,50.55
2024-04-07T06:33:41.758Z,49.65
2024-04-07T06:34:41.763Z,50.00
2024-04-07T06:35:41.770Z,50.00
2024-04-07T06:36:41.769Z,51.16
2024-04-07T06:37:41.785Z,52.01
2024-04-07T06:38:41.784Z,51.70
2024-04-07T06:39:41.805Z,50.24
2024-04-07T06:40:41.785Z,49.78
2024-04-07T06:41:41.791Z,48.66
2024-04-07T06:42:41.888Z,47.84
2024-04-07T06:43:41.783Z,47.67
2024-04-07T06:44:41.784Z,46.97
2024-04-07T06:45:41.892Z,51.32
2024-04-07T06:46:41.802Z,52.00
2024-04-07T06:47:41.802Z,52.02
2024-04-07T06:48:41.790Z,52.72
2024-04-07T06:49:41.790Z,52.72
2024-04-07T06:50:41.801Z,52.70
2024-04-07T06:51:41.797Z,57.46
2024-04-07T06:52:41.806Z,54.42
2024-04-07T06:53:41.812Z,55.35
2024-04-07T06:54:41.830Z,54.62
2024-04-07T06:55:41.930Z,53.11
2024-04-07T06:56:41.904Z,52.50
2024-04-07T06:57:41.946Z,52.40
2024-04-07T06:58:42.001Z,52.52
2024-04-07T06:59:42.025Z,50.00
2024-04-07T07:00:42.071Z,52.69
2024-04-07T07:01:42.124Z,52.09
2024-04-07T07:02:42.172Z,54.09
2024-04-07T07:03:42.226Z,54.66
2024-04-07T07:04:42.291Z,51.91
2024-04-07T07:05:42.347Z,54.94
2024-04-07T07:06:42.413Z,55.29
2024-04-07T07:07:42.492Z,51.65
2024-04-07T07:08:42.525Z,51.68
2024-04-07T07:09:42.589Z,51.98
2024-04-07T07:10:42.648Z,50.00
2024-04-07T07:11:42.701Z,54.30
2024-04-07T07:12:42.775Z,55.82
2024-04-07T07:13:42.822Z,54.50
2024-04-07T07:14:42.887Z,54.88
2024-04-07T07:15:42.962Z,57.30
2024-04-07T07:16:43.004Z,57.28
2024-04-07T07:17:43.082Z,58.36
2024-04-07T07:18:43.146Z,58.01
2024-04-07T07:19:43.210Z,58.43
2024-04-07T07:20:43.264Z,59.00
2024-04-07T07:21:43.331Z,57.89
2024-04-07T07:22:43.423Z,59.39
2024-04-07T07:23:43.479Z,59.49
2024-04-07T07:24:43.558Z,57.39
2024-04-07T07:25:43.615Z,58.61
2024-04-07T07:26:43.704Z,58.39
2024-04-07T07:27:43.743Z,57.68
2024-04-07T07:28:43.828Z,56.10
2024-04-07T07:29:43.888Z,56.31
2024-04-07T07:30:43.927Z,57.99
2024-04-07T07:31:43.995Z,59.15
2024-04-07T07:32:44.075Z,57.12
2024-04-07T07:33:44.106Z,60.09
2024-04-07T07:34:44.162Z,58.05
2024-04-07T07:35:44.225Z,58.52
2024-04-07T07:36:44.286Z,57.79
2024-04-07T07:37:44.350Z,57.24
2024-04-07T07:38:44.415Z,59.00
2024-04-07T07:39:44.490Z,59.49
2024-04-07T07:40:44.545Z,57.98
2024-04-07T07:41:44.620Z,59.34
2024-04-07T07:42:44.657Z,57.91
2024-04-07T07:43:44.728Z,58.69
2024-04-07T07:44:44.786Z,56.37
2024-04-07T07:45:44.831Z,57.94
2024-04-07T07:46:44.904Z,56.69
2024-04-07T07:47:44.928Z,57.66
2024-04-07T07:48:44.975Z,55.36
2024-04-07T07:49:45.037Z,56.41
2024-04-07T07:50:45.054Z,55.90
2024-04-07T07:51:45.101Z,51.70
2024-04-07T07:52:45.116Z,53.83
2024-04-07T07:53:45.132Z,52.07
2024-04-07T07:54:45.189Z,50.00
2024-04-07T07:55:45.206Z,52.43
2024-04-07T07:56:45.222Z,50.94
2024-04-07T07:57:45.283Z,51.13
2024-04-07T07:58:45.331Z,51.31
2024-04-07T07:59:45.329Z,50.00
2024-04-07T08:00:45.342Z,51.80
2024-04-07T08:01:45.377Z,51.70
2024-04-07T08:02:45.402Z,51.40
2024-04-07T08:03:45.399Z,53.04
2024-04-07T08:04:45.421Z,52.37
2024-04-07T08:05:45.409Z,50.00
2024-04-07T08:06:45.975Z,50.97
2024-04-07T08:07:45.469Z,50.89
2024-04-07T08:08:45.453Z,51.75
2024-04-07T08:09:45.469Z,50.50
2024-04-07T08:10:45.461Z,50.00
2024-04-07T08:11:45.507Z,50.30
2024-04-07T08:12:45.536Z,50.39
2024-04-07T08:13:45.564Z,53.24
2024-04-07T08:14:45.603Z,53.29
2024-04-07T08:15:45.624Z,53.72
2024-04-07T08:16:45.647Z,51.25
2024-04-07T08:17:45.639Z,50.12
2024-04-07T08:18:45.646Z,52.68
2024-04-07T08:19:45.674Z,50.00
2024-04-07T08:20:45.724Z,51.52
2024-04-07T08:21:45.727Z,50.00
2024-04-07T08:22:45.766Z,52.06
2024-04-07T08:23:45.751Z,49.44
2024-04-07T08:24:45.733Z,47.65
2024-04-07T08:25:45.794Z,46.12
2024-04-07T08:26:45.733Z,46.47
2024-04-07T08:27:45.737Z,43.71
2024-04-07T08:28:45.738Z,51.41
2024-04-07T08:29:45.775Z,51.07
2024-04-07T08:30:45.752Z,51.84
2024-04-07T08:31:45.747Z,53.25
2024-04-07T08:32:45.787Z,50.00
2024-04-07T08:33:45.748Z,50.02
2024-04-07T08:34:45.751Z,51.96
2024-04-07T08:35:45.757Z,53.25
2024-04-07T08:36:45.772Z,51.47
2024-04-07T08:37:45.770Z,54.69
2024-04-07T08:38:45.779Z,55.97
2024-04-07T08:39:45.778Z,55.38
2024-04-07T08:40:45.772Z,55.15
2024-04-07T08:41:45.757Z,54.58
2024-04-07T08:42:45.758Z,52.08
2024-04-07T08:43:45.773Z,49.64
2024-04-07T08:44:45.772Z,47.89
2024-04-07T08:45:45.773Z,49.22
2024-04-07T08:46:45.758Z,49.26
2024-04-07T08:47:45.779Z,52.29
2024-04-07T08:48:45.800Z,58.10
2024-04-07T08:49:45.771Z,59.23
2024-04-07T08:50:45.769Z,63.24
2024-04-07T08:51:45.771Z,63.61
2024-04-07T08:52:45.823Z,66.51
2024-04-07T08:53:45.884Z,72.76
2024-04-07T08:54:45.949Z,74.66
2024-04-07T08:55:46.020Z,78.00
2024-04-07T08:56:46.078Z,82.69
2024-04-07T08:57:46.162Z,82.23
2024-04-07T08:58:46.226Z,89.79
2024-04-07T08:59:46.295Z,93.39
2024-04-07T09:00:46.354Z,90.91
2024-04-07T09:01:46.437Z,97.59
2024-04-07T09:02:46.485Z,100.11
2024-04-07T09:03:46.537Z,102.61
2024-04-07T09:04:46.582Z,101.97
2024-04-07T09:05:46.673Z,106.22
2024-04-07T09:06:46.706Z,109.23
2024-04-07T09:07:46.746Z,109.77
2024-04-07T09:08:46.837Z,111.63
2024-04-07T09:09:46.851Z,117.32
2024-04-07T09:10:46.897Z,110.56
2024-04-07T09:11:46.932Z,114.61
2024-04-07T09:12:47.003Z,120.53
2024-04-07T09:13:47.035Z,120.24
2024-04-07T09:14:47.034Z,119.33
2024-04-07T09:15:47.038Z,119.64
2024-04-07T09:16:47.041Z,120.81
2024-04-07T09:17:47.062Z,123.69
2024-04-07T09:18:47.051Z,125.06
2024-04-07T09:19:47.036Z,134.41
2024-04-07T09:20:47.032Z,138.08
2024-04-07T09:21:47.043Z,142.94
2024-04-07T09:22:47.044Z,141.35
2024-04-07T09:23:47.042Z,145.94
2024-04-07T09:24:47.076Z,147.44
2024-04-07T09:25:49.221Z,144.07
2024-04-07T09:26:47.049Z,146.73
2024-04-07T09:27:47.074Z,147.77
2024-04-07T09:28:47.064Z,149.67
2024-04-07T09:29:47.043Z,152.60
2024-04-07T09:30:47.046Z,152.69
2024-04-07T09:31:47.063Z,152.75
2024-04-07T09:32:47.056Z,152.81
2024-04-07T09:33:47.139Z,155.46
2024-04-07T09:34:47.179Z,158.90
2024-04-07T09:35:47.236Z,160.28
2024-04-07T09:36:47.314Z,163.89
2024-04-07T09:37:47.344Z,167.47
2024-04-07T09:38:47.396Z,170.04
2024-04-07T09:39:47.455Z,171.46
2024-04-07T09:40:47.474Z,176.27
2024-04-07T09:41:47.539Z,177.98
2024-04-07T09:42:47.584Z,179.60
2024-04-07T09:43:47.653Z,183.49
2024-04-07T09:44:47.701Z,186.01
2024-04-07T09:45:47.736Z,188.84
2024-04-07T09:46:47.811Z,191.20
2024-04-07T09:47:47.854Z,193.73
2024-04-07T09:48:47.867Z,193.85
2024-04-07T09:49:47.862Z,194.96
2024-04-07T09:50:47.870Z,196.95
2024-04-07T09:51:47.861Z,201.60
2024-04-07T09:52:47.869Z,205.89
2024-04-07T09:53:47.875Z,200.77
2024-04-07T09:54:47.874Z,199.28
2024-04-07T09:55:47.874Z,199.52
2024-04-07T09:56:47.898Z,199.59
2024-04-07T09:57:47.879Z,198.95
2024-04-07T09:58:47.882Z,200.00
2024-04-07T09:59:47.890Z,200.00
2024-04-07T10:00:47.897Z,200.00
2024-04-07T10:01:47.907Z,198.67
2024-04-07T10:02:47.934Z,200.00
2024-04-07T10:03:47.968Z,199.79
2024-04-07T10:04:47.986Z,199.70
2024-04-07T10:05:48.004Z,199.77
2024-04-07T10:06:48.006Z,200.25
2024-04-07T10:07:47.994Z,200.97
2024-04-07T10:08:48.013Z,202.75
2024-04-07T10:09:48.008Z,207.14
2024-04-07T10:10:58.517Z,198.57
2024-04-07T10:11:48.009Z,198.65
2024-04-07T10:12:48.022Z,199.11
2024-04-07T10:13:48.023Z,200.39
2024-04-07T10:14:48.015Z,202.39
2024-04-07T10:15:48.027Z,204.42
2024-04-07T10:16:48.009Z,198.14
2024-04-07T10:17:48.015Z,198.31
2024-04-07T10:18:48.018Z,198.66
2024-04-07T10:19:48.020Z,198.97
2024-04-07T10:20:48.019Z,200.00
2024-04-07T10:21:48.017Z,199.12
2024-04-07T10:22:48.018Z,199.13
2024-04-07T10:23:49.013Z,199.52
2024-04-07T10:24:48.051Z,199.28
2024-04-07T10:25:48.027Z,200.21
2024-04-07T10:26:48.020Z,198.34
2024-04-07T10:27:48.023Z,198.88
2024-04-07T10:28:48.029Z,199.32
2024-04-07T10:29:48.041Z,200.00
2024-04-07T10:30:48.049Z,198.37
2024-04-07T10:31:48.048Z,199.75
2024-04-07T10:32:48.038Z,199.65
2024-04-07T10:33:48.039Z,198.91
2024-04-07T10:34:48.035Z,198.00
2024-04-07T10:35:48.041Z,197.88
2024-04-07T10:36:48.040Z,199.00
2024-04-07T10:37:48.149Z,199.89
2024-04-07T10:38:48.117Z,199.27
2024-04-07T10:39:48.164Z,199.62
2024-04-07T10:40:48.197Z,199.12
2024-04-07T10:41:48.248Z,198.62
2024-04-07T10:42:48.331Z,199.38
2024-04-07T10:43:48.391Z,198.27
2024-04-07T10:44:48.464Z,199.39
2024-04-07T10:45:48.522Z,199.62
2024-04-07T10:46:48.577Z,200.00
2024-04-07T10:47:48.658Z,198.55
2024-04-07T10:48:48.721Z,198.65
2024-04-07T10:49:48.798Z,199.88
2024-04-07T10:50:48.846Z,199.68
2024-04-07T10:51:48.944Z,199.35
2024-04-07T10:52:48.990Z,199.08
2024-04-07T10:53:49.064Z,200.00
2024-04-07T10:54:49.124Z,198.11
2024-04-07T10:55:49.183Z,198.57
2024-04-07T10:56:49.252Z,198.28
2024-04-07T10:57:49.313Z,199.75
2024-04-07T10:58:49.369Z,199.05
2024-04-07T10:59:50.869Z,199.96
2024-04-07T11:00:49.593Z,198.80
2024-04-07T11:01:49.659Z,200.00
2024-04-07T11:02:49.703Z,200.00
2024-04-07T11:03:49.768Z,199.66
2024-04-07T11:04:49.820Z,199.50
2024-04-07T11:05:49.898Z,199.26
2024-04-07T11:06:49.937Z,198.62
2024-04-07T11:07:50.014Z,199.07
2024-04-07T11:08:50.075Z,197.83
2024-04-07T11:09:50.112Z,199.66
2024-04-07T11:10:50.169Z,199.15
2024-04-07T11:11:50.233Z,196.95
2024-04-07T11:12:50.278Z,198.69
2024-04-07T11:13:50.334Z,199.02
2024-04-07T11:14:50.390Z,199.15
2024-04-07T11:15:50.436Z,198.91
2024-04-07T11:16:50.465Z,199.30
2024-04-07T11:17:50.549Z,198.40
2024-04-07T11:18:50.551Z,198.92
2024-04-07T11:19:50.599Z,198.71
2024-04-07T11:20:50.651Z,199.19
2024-04-07T11:21:50.689Z,200.00
2024-04-07T11:22:50.736Z,199.69
2024-04-07T11:23:50.775Z,199.14
2024-04-07T11:24:50.795Z,199.07
2024-04-07T11:25:50.802Z,199.11
2024-04-07T11:26:50.800Z,199.45
2024-04-07T11:27:50.802Z,199.80
2024-04-07T11:28:50.805Z,200.27
2024-04-07T11:29:50.807Z,199.22
2024-04-07T11:30:50.802Z,199.52
2024-04-07T11:32:00.548Z,200.39
2024-04-07T11:32:51.823Z,199.23
2024-04-07T11:33:50.828Z,199.89
2024-04-07T11:34:50.834Z,201.14
2024-04-07T11:35:50.822Z,199.30
2024-04-07T11:36:50.827Z,200.10
2024-04-07T11:37:50.828Z,201.50
2024-04-07T11:38:50.823Z,203.38
2024-04-07T11:39:56.921Z,205.96
2024-04-07T11:40:51.844Z,199.36
2024-04-07T11:41:50.838Z,200.30
2024-04-07T11:42:50.849Z,202.12
2024-04-07T11:43:50.853Z,204.21
2024-04-07T11:44:50.855Z,207.71
2024-04-07T11:45:50.856Z,199.73
2024-04-07T11:46:50.854Z,199.25
2024-04-07T11:47:50.852Z,199.48
2024-04-07T11:48:50.864Z,198.29
2024-04-07T11:49:50.847Z,199.33
2024-04-07T11:50:50.860Z,199.25
2024-04-07T11:51:50.864Z,199.67
2024-04-07T11:52:50.849Z,199.49
2024-04-07T11:53:50.866Z,199.07
2024-04-07T11:54:50.858Z,199.28
2024-04-07T11:55:50.865Z,197.29
2024-04-07T11:56:50.860Z,198.59
2024-04-07T11:57:50.867Z,198.63
2024-04-07T11:58:50.875Z,198.85
2024-04-07T11:59:50.902Z,199.25
2024-04-07T12:00:50.864Z,199.46
2024-04-07T12:01:50.884Z,199.57
2024-04-07T12:02:50.882Z,198.63
2024-04-07T12:03:50.888Z,198.62
2024-04-07T12:04:50.869Z,199.12
2024-04-07T12:05:50.893Z,198.34
2024-04-07T12:06:50.876Z,198.80
2024-04-07T12:07:50.906Z,199.91
2024-04-07T12:08:50.884Z,199.68
2024-04-07T12:09:50.895Z,198.64
2024-04-07T12:10:50.901Z,199.91
2024-04-07T12:11:50.893Z,196.37
2024-04-07T12:12:50.905Z,199.04
2024-04-07T12:13:50.921Z,198.12
2024-04-07T12:14:50.900Z,199.24
2024-04-07T12:15:50.903Z,197.49
2024-04-07T12:16:50.900Z,199.73
2024-04-07T12:17:50.912Z,198.69
2024-04-07T12:18:50.935Z,198.87
2024-04-07T12:19:50.961Z,199.88
2024-04-07T12:20:50.987Z,199.56
2024-04-07T12:21:51.018Z,199.72
2024-04-07T12:22:51.037Z,198.53
2024-04-07T12:23:51.091Z,196.81
2024-04-07T12:24:52.645Z,197.47
2024-04-07T12:25:51.107Z,199.50
2024-04-07T12:26:51.118Z,199.32
2024-04-07T12:27:51.118Z,198.95
2024-04-07T12:28:51.130Z,198.76
2024-04-07T12:29:51.137Z,198.47
2024-04-07T12:30:51.115Z,198.90
2024-04-07T12:31:51.124Z,199.27
2024-04-07T12:32:51.133Z,198.70
2024-04-07T12:33:51.158Z,198.79
2024-04-07T12:34:51.142Z,199.02
2024-04-07T12:35:51.145Z,199.71
2024-04-07T12:36:51.149Z,199.75
2024-04-07T12:37:51.143Z,200.62
2024-04-07T12:38:51.149Z,198.21